Time;durP1;ratioP1;P1;durP2;ratioP2;P2;SDS_P1;SDS_P2;PMS_P1;PMS_P2;Temp;Humidity;BMP_temperature;BMP_pressure;BME280_temperature;BME280_humidity;BME280_pressure;Samples;Min_cycle;Max_cycle;Signal;HPM_P1;HPM_P2
2023/11/09 00:01:36;;;;;;;5.35;4.05;;;;;;;-146.27;94.12;83260.13;5032932;28;20075;-67
2023/11/09 00:04:03;;;;;;;5.38;3.60;;;;;;;-146.27;94.73;83300.31;5030426;28;20060;-68
2023/11/09 00:06:29;;;;;;;6.63;3.90;;;;;;;-146.27;94.91;83282.22;5017560;28;20029;-68
2023/11/09 00:08:54;;;;;;;4.78;3.42;;;;;;;-146.27;94.54;83294.28;5025472;28;20051;-68
2023/11/09 00:11:20;;;;;;;6.05;3.38;;;;;;;-146.27;94.62;83328.44;5038697;28;20074;-69
2023/11/09 00:13:45;;;;;;;9.05;4.07;;;;;;;-146.27;95.10;83298.28;5033642;28;20085;-68
2023/11/09 00:16:12;;;;;;;4.13;3.50;;;;;;;-146.27;95.32;83266.16;5035749;28;20029;-68
2023/11/09 00:18:38;;;;;;;4.80;3.50;;;;;;;-146.27;94.86;83324.41;5028333;28;20420;-68
2023/11/09 00:21:03;;;;;;;4.53;2.90;;;;;;;-146.27;95.61;83320.41;5027573;28;20037;-67
2023/11/09 00:23:31;;;;;;;4.60;3.53;;;;;;;-146.27;94.93;83306.34;5031860;28;20048;-68
2023/11/09 00:25:57;;;;;;;6.07;4.00;;;;;;;-146.27;94.98;83288.25;5025621;28;20024;-68
2023/11/09 00:28:22;;;;;;;5.05;3.83;;;;;;;-146.27;94.23;83242.03;5029038;28;20482;-68
2023/11/09 00:30:47;;;;;;;5.03;4.40;;;;;;;-146.27;94.11;83292.28;5031448;28;20441;-67
2023/11/09 00:33:13;;;;;;;5.03;4.30;;;;;;;-146.27;96.04;83354.56;5031044;28;20048;-67
2023/11/09 00:35:39;;;;;;;8.13;5.13;;;;;;;-146.27;95.33;83260.13;5031049;28;20039;-67
2023/11/09 00:38:06;;;;;;;6.55;5.05;;;;;;;-146.27;95.74;83328.44;5029704;28;20052;-67
2023/11/09 00:40:31;;;;;;;5.05;4.53;;;;;;;-146.27;95.26;83272.19;5030745;28;20052;-69
2023/11/09 00:42:57;;;;;;;9.45;5.53;;;;;;;-146.27;96.53;83324.41;5037325;28;20462;-68
2023/11/09 00:45:22;;;;;;;10.25;5.30;;;;;;;-146.27;95.37;83286.25;5035629;28;20100;-68
2023/11/09 00:47:48;;;;;;;6.53;5.45;;;;;;;-146.27;94.54;83244.03;5033782;28;20492;-67
2023/11/09 00:50:14;;;;;;;9.25;6.07;;;;;;;-146.27;95.46;83336.47;5036381;28;20029;-68
2023/11/09 00:52:40;;;;;;;7.35;6.28;;;;;;;-146.27;95.46;83274.19;5035654;28;20430;-68
2023/11/09 00:55:06;;;;;;;8.52;6.70;;;;;;;-146.27;94.72;83280.22;5029375;28;20017;-69
2023/11/09 00:57:32;;;;;;;12.05;7.30;;;;;;;-146.27;95.20;83256.09;5034056;28;20033;-67
2023/11/09 01:00:02;;;;;;;9.82;7.50;;;;;;;-146.27;95.94;83238.03;5034835;28;20031;-68
2023/11/09 01:02:33;;;;;;;9.30;6.75;;;;;;;-146.27;95.27;83278.19;5039087;28;20144;-67
2023/11/09 01:04:59;;;;;;;8.40;6.35;;;;;;;-146.27;95.45;83234.00;5036251;28;20017;-68
2023/11/09 01:07:25;;;;;;;8.10;3.45;;;;;;;-146.27;95.35;83266.16;5049922;28;20532;-68
2023/11/09 01:09:50;;;;;;;4.40;2.45;;;;;;;-146.27;94.82;83296.28;5040057;28;20400;-69
2023/11/09 01:12:17;;;;;;;4.00;1.80;;;;;;;-146.27;94.29;83272.19;5034938;28;20444;-69
2023/11/09 01:14:43;;;;;;;4.65;1.10;;;;;;;-146.27;93.58;83276.19;5039992;28;20029;-69
2023/11/09 01:17:11;;;;;;;4.00;1.33;;;;;;;-146.27;93.44;83268.16;5037885;28;20451;-69
2023/11/09 01:19:36;;;;;;;8.32;1.30;;;;;;;-146.27;93.57;83332.44;5033989;28;20618;-69
2023/11/09 01:22:01;;;;;;;2.55;0.80;;;;;;;-146.27;93.62;83332.44;5035703;28;20038;-68
2023/11/09 01:24:28;;;;;;;2.80;0.77;;;;;;;-146.27;93.24;83324.41;5036773;28;20041;-69
2023/11/09 01:26:53;;;;;;;5.47;1.55;;;;;;;-146.27;93.26;83398.75;5046787;28;20443;-69
2023/11/09 01:29:21;;;;;;;3.33;0.70;;;;;;;-146.27;93.36;83336.47;5036922;28;20033;-69
2023/11/09 01:31:48;;;;;;;3.80;1.33;;;;;;;-146.27;92.49;83336.47;5037817;28;20065;-69
2023/11/09 01:34:13;;;;;;;3.00;1.00;;;;;;;-146.27;92.27;83312.34;5033066;28;20036;-70
2023/11/09 01:36:39;;;;;;;4.82;1.35;;;;;;;-146.27;92.06;83336.47;5028511;28;20124;-69
2023/11/09 01:39:05;;;;;;;5.13;0.90;;;;;;;-146.27;91.88;83336.47;5024502;28;20033;-69
2023/11/09 01:41:30;;;;;;;9.43;1.27;;;;;;;-146.27;92.33;83344.50;5033320;28;20036;-69
2023/11/09 01:43:57;;;;;;;5.78;0.77;;;;;;;-146.27;91.96;83314.38;5033492;28;20126;-69
2023/11/09 01:46:26;;;;;;;2.95;0.90;;;;;;;-146.27;92.12;83312.34;5032530;28;20539;-69
2023/11/09 01:48:53;;;;;;;7.22;0.90;;;;;;;-146.27;91.87;83304.31;5036407;28;20061;-69
2023/11/09 01:51:19;;;;;;;8.52;1.00;;;;;;;-146.27;91.79;83336.47;5047499;28;20094;-69
2023/11/09 01:53:46;;;;;;;2.33;1.10;;;;;;;-146.27;91.85;83326.44;5031035;28;20056;-69
2023/11/09 01:56:14;;;;;;;3.63;0.80;;;;;;;-146.27;91.83;83340.50;5043412;28;20029;-69
2023/11/09 01:58:44;;;;;;;6.72;0.85;;;;;;;-146.27;91.77;83346.53;5031444;28;20033;-69
2023/11/09 02:01:12;;;;;;;3.47;0.90;;;;;;;-146.27;91.84;83316.38;5029833;28;20025;-69
2023/11/09 02:03:38;;;;;;;5.47;0.90;;;;;;;-146.27;91.76;83340.50;5034072;28;20064;-69
2023/11/09 02:06:05;;;;;;;5.05;1.20;;;;;;;-146.27;91.81;83364.59;5040662;28;20047;-69
2023/11/09 02:08:32;;;;;;;4.00;1.00;;;;;;;-146.27;91.83;83308.34;5032386;28;20056;-69
2023/11/09 02:10:57;;;;;;;9.68;1.00;;;;;;;-146.27;91.77;83342.50;5040279;28;20036;-69
2023/11/09 02:13:23;;;;;;;6.82;0.93;;;;;;;-146.27;91.82;83316.38;5048234;28;20025;-69
2023/11/09 02:15:48;;;;;;;3.17;1.40;;;;;;;-146.27;91.74;83336.47;5027606;28;20053;-69
2023/11/09 02:18:14;;;;;;;8.05;1.35;;;;;;;-146.27;91.91;83332.44;5030855;28;20548;-69
2023/11/09 02:20:40;;;;;;;0.73;0.63;;;;;;;-146.27;91.78;83334.47;5032040;28;20034;-67
2023/11/09 02:23:08;;;;;;;3.28;0.90;;;;;;;-146.27;91.81;83332.44;5038626;28;20404;-67
2023/11/09 02:25:34;;;;;;;5.60;1.45;;;;;;;-146.27;91.90;83302.31;5044136;28;20055;-68
2023/11/09 02:28:00;;;;;;;9.05;1.52;;;;;;;-146.27;91.85;83322.41;5030589;28;20075;-67
2023/11/09 02:30:26;;;;;;;8.38;2.35;;;;;;;-146.27;91.94;83360.59;5031944;28;20028;-67
2023/11/09 02:32:51;;;;;;;5.53;1.20;;;;;;;-146.27;91.99;83346.53;5030054;28;20029;-67
2023/11/09 02:35:17;;;;;;;3.47;1.20;;;;;;;-146.27;92.01;83350.53;5030376;28;20037;-68
2023/11/09 02:37:42;;;;;;;6.95;1.92;;;;;;;-146.27;92.01;83342.50;5037330;28;20112;-67
2023/11/09 02:40:08;;;;;;;4.80;1.42;;;;;;;-146.27;92.07;83314.38;5031298;28;20120;-67
2023/11/09 02:42:33;;;;;;;2.92;1.42;;;;;;;-146.27;92.21;83304.31;5027473;28;20068;-68
2023/11/09 02:44:59;;;;;;;3.95;1.58;;;;;;;-146.27;92.01;83318.38;5034535;28;20012;-67
2023/11/09 02:47:24;;;;;;;5.05;1.50;;;;;;;-146.27;91.94;83314.38;5029542;28;20524;-68
2023/11/09 02:49:49;;;;;;;2.28;1.33;;;;;;;-146.27;91.93;83346.53;5025422;28;20021;-68
2023/11/09 02:52:15;;;;;;;7.32;1.58;;;;;;;-146.27;91.88;83312.34;5033423;28;20036;-67
2023/11/09 02:54:40;;;;;;;5.53;1.48;;;;;;;-146.27;92.00;83336.47;5034471;28;20489;-67
2023/11/09 02:57:06;;;;;;;6.72;1.85;;;;;;;-146.27;91.88;83338.47;5022074;28;20498;-67
2023/11/09 02:59:32;;;;;;;6.40;1.90;;;;;;;-146.27;92.28;83368.63;5032350;28;20044;-67
2023/11/09 03:01:57;;;;;;;6.35;1.67;;;;;;;-146.27;92.03;83318.38;5033014;28;20758;-67
2023/11/09 03:04:23;;;;;;;4.85;1.92;;;;;;;-146.27;92.00;83312.34;5030656;28;20129;-68
2023/11/09 03:06:48;;;;;;;8.90;1.63;;;;;;;-146.27;91.94;83328.44;5030700;28;20159;-67
2023/11/09 03:09:16;;;;;;;5.60;1.48;;;;;;;-146.27;91.90;83304.31;5020799;28;20025;-67
2023/11/09 03:11:42;;;;;;;4.75;1.90;;;;;;;-146.27;91.96;83336.47;5028685;28;20100;-67
2023/11/09 03:14:07;;;;;;;4.28;1.83;;;;;;;-146.27;91.93;83342.50;5028885;28;20449;-67
2023/11/09 03:16:33;;;;;;;5.72;1.92;;;;;;;-146.27;91.81;83312.34;5024134;28;20043;-69
2023/11/09 03:19:00;;;;;;;9.00;1.85;;;;;;;-146.27;91.85;83304.31;5036133;28;20022;-67
2023/11/09 03:21:26;;;;;;;10.02;2.00;;;;;;;-146.27;91.93;83322.41;5028971;28;20021;-68
2023/11/09 03:23:52;;;;;;;6.20;1.70;;;;;;;-146.27;91.94;83382.69;5037443;28;20517;-67
2023/11/09 03:26:17;;;;;;;9.63;2.05;;;;;;;-146.27;92.06;83312.34;5027528;28;20187;-67
2023/11/09 03:28:43;;;;;;;13.55;2.25;;;;;;;-146.27;91.99;32366.91;5036129;28;20477;-69
2023/11/09 03:31:10;;;;;;;8.43;1.80;;;;;;;-146.27;91.88;32021.75;5032420;28;20051;-68
2023/11/09 03:33:36;;;;;;;17.25;2.65;;;;;;;-146.27;92.12;32287.53;5033133;28;20021;-66
2023/11/09 03:36:01;;;;;;;11.60;2.45;;;;;;;-146.27;92.19;32224.06;5025805;28;20113;-68
2023/11/09 03:38:27;;;;;;;20.27;3.60;;;;;;;-146.27;92.12;32079.28;5021527;28;20532;-66
2023/11/09 03:40:52;;;;;;;8.23;2.35;;;;;;;-146.27;92.02;32152.66;5033096;28;20075;-68
2023/11/09 03:43:18;;;;;;;14.68;2.40;;;;;;;-146.27;92.24;32184.41;5026415;28;20021;-69
2023/11/09 03:45:43;;;;;;;9.25;2.25;;;;;;;-146.27;92.31;32148.69;5026695;28;20022;-68
2023/11/09 03:48:08;;;;;;;17.95;3.15;;;;;;;-146.27;92.58;32164.56;5024125;28;20493;-68
2023/11/09 03:50:34;;;;;;;7.07;2.00;;;;;;;-146.27;92.92;32247.88;5027290;28;20512;-68
2023/11/09 03:52:59;;;;;;;15.85;2.97;;;;;;;-146.27;92.72;32194.31;5030884;28;20032;-69
2023/11/09 03:55:24;;;;;;;14.35;1.80;;;;;;;-146.27;92.49;32136.78;5029625;28;20160;-68
2023/11/09 03:57:50;;;;;;;10.13;2.05;;;;;;;-146.27;92.38;32168.53;5034279;28;20024;-68
2023/11/09 04:00:18;;;;;;;9.43;1.65;;;;;;;-146.27;92.32;32184.41;5038214;28;20035;-68
2023/11/09 04:02:44;;;;;;;9.55;1.70;;;;;;;-146.27;92.06;32184.41;5026214;28;20038;-68
2023/11/09 04:05:11;;;;;;;7.72;1.65;;;;;;;-146.27;91.85;32130.84;5025687;28;20029;-67
2023/11/09 04:07:44;;;;;;;6.88;1.67;;;;;;;-146.27;91.78;32144.72;5012167;28;20037;-67
2023/11/09 04:10:12;;;;;;;10.85;1.70;;;;;;;-146.27;91.77;32128.88;5034588;28;20025;-68
2023/11/09 04:12:40;;;;;;;7.95;1.50;;;;;;;-146.27;91.81;32154.66;5032711;28;20453;-67
2023/11/09 04:15:06;;;;;;;11.63;1.60;;;;;;;-146.27;91.77;32164.56;5027190;28;20029;-69
2023/11/09 04:17:32;;;;;;;8.20;1.75;;;;;;;-146.27;91.81;32160.59;5027117;28;20053;-69
2023/11/09 04:20:01;;;;;;;14.73;2.10;;;;;;;-146.27;91.75;32164.56;5034318;28;20489;-69
2023/11/09 04:22:26;;;;;;;8.70;1.88;;;;;;;-146.27;91.96;32164.56;5024419;28;20029;-69
2023/11/09 04:24:52;;;;;;;18.05;2.47;;;;;;;-146.27;91.88;32202.25;5032468;28;20068;-69
2023/11/09 04:27:18;;;;;;;9.57;1.60;;;;;;;-146.27;91.71;32182.41;5034619;28;20049;-69
2023/11/09 04:29:43;;;;;;;17.73;2.20;;;;;;;-146.27;91.71;32206.22;5028423;28;20029;-69
2023/11/09 04:32:09;;;;;;;12.50;1.85;;;;;;;-146.27;91.75;32186.38;5028093;28;20063;-69
2023/11/09 04:34:37;;;;;;;13.27;2.88;;;;;;;-146.27;92.10;32235.97;5032106;28;20030;-69
2023/11/09 04:37:03;;;;;;;16.77;2.17;;;;;;;-146.27;91.88;32212.16;5027598;28;20033;-68
2023/11/09 04:39:29;;;;;;;11.38;2.15;;;;;;;-146.27;91.84;32267.72;5027585;28;20120;-68
2023/11/09 04:41:57;;;;;;;16.65;1.90;;;;;;;-146.27;91.87;32116.97;5033816;28;20029;-67
2023/11/09 04:44:23;;;;;;;11.98;2.30;;;;;;;-146.27;91.79;32228.03;5035982;28;20071;-68
2023/11/09 04:46:49;;;;;;;12.07;2.60;;;;;;;-146.27;92.07;32192.34;5023850;28;20573;-68
2023/11/09 04:49:18;;;;;;;8.88;2.55;;;;;;;-146.27;91.85;32202.25;5022213;28;20108;-67
2023/11/09 04:51:46;;;;;;;16.52;2.85;;;;;;;-146.27;92.44;32249.84;5029970;28;20036;-67
2023/11/09 04:54:19;;;;;;;17.65;2.95;;;;;;;-146.27;92.36;32255.81;5037475;28;20140;-68
2023/11/09 05:07:24;;;;;;;;;;;;;;;-146.27;91.69;32263.75;5028025;28;20037;-67
2023/11/09 05:09:49;;;;;;;16.30;2.20;;;;;;;-146.27;91.63;32265.72;5029974;28;19920;-67
2023/11/09 05:12:16;;;;;;;13.10;2.75;;;;;;;-146.27;91.89;32295.47;5034514;28;20044;-67
2023/11/09 05:14:42;;;;;;;12.30;3.33;;;;;;;-146.27;91.79;32243.91;5030863;28;20033;-67
2023/11/09 05:17:08;;;;;;;9.57;2.45;;;;;;;-146.27;91.66;32251.84;5015709;28;20061;-67
2023/11/09 05:19:34;;;;;;;16.50;3.13;;;;;;;-146.27;91.47;32271.69;5028458;28;20028;-67
2023/11/09 05:22:00;;;;;;;16.77;3.08;;;;;;;-146.27;91.56;32263.75;5028178;28;20056;-67
2023/11/09 05:24:26;;;;;;;10.23;2.60;;;;;;;-146.27;91.51;32232.00;5037712;28;20021;-67
2023/11/09 05:26:51;;;;;;;20.60;3.35;;;;;;;-146.27;91.71;32315.31;5034368;28;20060;-67
2023/11/09 05:29:18;;;;;;;18.63;4.05;;;;;;;-146.27;92.08;32307.38;5038081;28;20036;-68
2023/11/09 05:31:44;;;;;;;19.83;4.40;;;;;;;-146.27;91.92;32295.47;5032074;28;20423;-67
2023/11/09 05:34:10;;;;;;;9.05;2.40;;;;;;;-146.27;91.76;32283.59;5024143;28;20212;-67
2023/11/09 05:36:36;;;;;;;14.80;3.55;;;;;;;-146.27;91.51;32251.84;5036990;28;20174;-68
2023/11/09 05:39:05;;;;;;;16.80;3.47;;;;;;;-146.27;91.61;32235.97;5033194;28;20022;-67
2023/11/09 05:41:32;;;;;;;15.32;3.75;;;;;;;-146.27;91.57;32239.94;5031529;28;20033;-67
2023/11/09 05:43:57;;;;;;;13.43;3.85;;;;;;;-146.27;91.73;32323.25;5034380;28;20045;-67
2023/11/09 05:46:23;;;;;;;20.83;4.53;;;;;;;-146.27;91.74;32309.38;5030486;28;20074;-67
2023/11/09 05:48:48;;;;;;;18.10;4.88;;;;;;;-146.27;91.69;32291.50;5036399;28;20738;-67
2023/11/09 05:51:20;;;;;;;15.90;4.70;;;;;;;-146.27;91.58;32301.44;5038832;28;20029;-67
2023/11/09 05:53:50;;;;;;;15.50;5.00;;;;;;;-146.27;91.64;32285.56;5023772;28;20026;-67
2023/11/09 05:56:16;;;;;;;23.38;5.60;;;;;;;-146.27;91.64;32315.31;5032273;28;20032;-67
2023/11/09 05:58:42;;;;;;;18.55;5.20;;;;;;;-146.27;91.56;32331.19;5038311;28;20033;-67
2023/11/09 06:01:08;;;;;;;16.17;5.18;;;;;;;-146.27;91.60;32307.38;5031147;28;20029;-67
2023/11/09 06:03:34;;;;;;;29.92;5.35;;;;;;;-146.27;91.37;32319.28;5034825;28;20040;-67
2023/11/09 06:06:00;;;;;;;29.33;5.55;;;;;;;-146.27;91.38;32366.91;5030320;28;20031;-67
2023/11/09 06:08:25;;;;;;;19.52;5.65;;;;;;;-146.27;91.59;32374.81;5035571;28;20065;-67
2023/11/09 06:10:50;;;;;;;19.65;5.25;;;;;;;-146.27;91.47;32376.81;5035470;28;20028;-68
2023/11/09 06:13:16;;;;;;;20.80;4.82;;;;;;;-146.27;91.44;32370.84;5034124;28;20036;-67
2023/11/09 06:15:42;;;;;;;19.38;4.78;;;;;;;-146.27;91.34;32347.06;5036462;28;20684;-67
2023/11/09 06:18:09;;;;;;;21.30;5.63;;;;;;;-146.27;91.26;32355.00;5026078;28;20053;-67
2023/11/09 06:20:38;;;;;;;22.83;5.47;;;;;;;-146.27;91.21;32440.28;5023103;28;20033;-68
2023/11/09 06:23:05;;;;;;;28.13;6.57;;;;;;;-146.27;91.23;32430.38;5032184;28;20030;-67
2023/11/09 06:25:30;;;;;;;23.95;6.63;;;;;;;-146.27;91.26;32347.06;5037151;28;20028;-68
2023/11/09 06:27:56;;;;;;;23.13;7.28;;;;;;;-146.27;91.30;32432.34;5026907;28;20021;-70
2023/11/09 06:30:21;;;;;;;26.55;7.60;;;;;;;-146.27;91.29;32446.25;5029259;28;20482;-67
2023/11/09 06:32:48;;;;;;;28.20;6.95;;;;;;;-146.27;91.31;32418.47;5030001;28;20033;-67
2023/11/09 06:35:17;;;;;;;18.95;6.10;;;;;;;-146.27;91.38;32446.25;5027915;28;20036;-67
2023/11/09 06:37:45;;;;;;;23.65;6.78;;;;;;;-146.27;91.23;32485.91;5026456;28;20132;-67
2023/11/09 06:40:16;;;;;;;29.35;6.97;;;;;;;-146.27;91.21;32481.94;5022289;28;20030;-69
2023/11/09 06:42:42;;;;;;;18.88;6.32;;;;;;;-146.27;91.22;32487.91;5030983;28;20033;-69
2023/11/09 06:45:09;;;;;;;18.55;6.15;;;;;;;-146.27;91.16;32497.81;5029380;28;20469;-69
2023/11/09 06:47:35;;;;;;;22.67;7.57;;;;;;;-146.27;91.26;32497.81;5014841;28;20033;-69
2023/11/09 06:50:02;;;;;;;27.85;7.32;;;;;;;-146.27;91.31;32509.72;5035925;28;20068;-69
2023/11/09 06:52:27;;;;;;;23.42;6.88;;;;;;;-146.27;91.25;32545.44;5034840;28;20484;-68
2023/11/09 06:54:53;;;;;;;26.70;7.25;;;;;;;-146.27;91.31;32545.44;5028673;28;20024;-68
2023/11/09 06:57:18;;;;;;;21.23;6.85;;;;;;;-146.27;91.07;32565.25;5026189;28;20537;-69
2023/11/09 06:59:43;;;;;;;24.55;6.20;;;;;;;-146.27;91.18;32573.19;5028843;28;20119;-70
2023/11/09 07:02:09;;;;;;;27.98;6.97;;;;;;;-146.27;91.50;32589.06;5030250;28;20091;-69
2023/11/09 07:04:34;;;;;;;22.80;5.53;;;;;;;-146.27;91.31;32593.03;5030058;28;20018;-69
2023/11/09 07:07:00;;;;;;;15.52;6.28;;;;;;;-146.27;91.39;32593.03;5028294;28;20079;-69
2023/11/09 07:09:33;;;;;;;23.38;6.95;;;;;;;-146.27;91.36;32604.94;5027145;28;22270;-68
2023/11/09 07:11:58;;;;;;;21.38;5.30;;;;;;;-146.27;91.44;32585.09;5018471;28;20073;-68
2023/11/09 07:14:23;;;;;;;34.65;6.10;;;;;;;-146.27;91.59;32589.06;5029855;28;20056;-68
2023/11/09 07:16:50;;;;;;;16.13;5.57;;;;;;;-146.27;91.50;32600.97;5038769;28;20045;-69
2023/11/09 07:19:16;;;;;;;22.35;6.07;;;;;;;-146.27;91.46;32604.94;5041395;28;20037;-68
2023/11/09 07:21:44;;;;;;;19.20;5.50;;;;;;;-146.27;91.61;32608.91;5029089;28;20029;-68
2023/11/09 07:24:11;;;;;;;24.98;5.95;;;;;;;-146.27;91.48;32591.06;5030244;28;20113;-69
2023/11/09 07:26:37;;;;;;;24.55;5.45;;;;;;;-146.27;91.10;32577.16;5034354;28;20029;-67
2023/11/09 07:29:03;;;;;;;18.73;5.00;;;;;;;-146.27;91.21;32565.25;5033416;28;20036;-68
2023/11/09 07:31:28;;;;;;;25.60;6.35;;;;;;;-146.27;90.85;32559.31;5020913;28;20397;-68
2023/11/09 07:33:54;;;;;;;25.98;5.05;;;;;;;-146.27;90.77;32581.13;5024625;28;20500;-68
2023/11/09 07:36:20;;;;;;;19.10;4.57;;;;;;;-146.27;90.67;32571.22;5029705;28;20041;-68
2023/11/09 07:38:46;;;;;;;22.10;4.55;;;;;;;-146.27;90.80;32557.31;5025630;28;20022;-68
2023/11/09 07:41:11;;;;;;;18.73;5.40;;;;;;;-146.27;90.86;32535.50;5022287;28;20025;-67
2023/11/09 07:43:37;;;;;;;29.17;5.28;;;;;;;-146.27;90.99;32557.31;5046852;28;20148;-68
2023/11/09 07:46:02;;;;;;;24.98;5.43;;;;;;;-146.27;90.64;32604.94;5017058;28;20100;-68
2023/11/09 07:48:28;;;;;;;16.65;4.45;;;;;;;-146.27;90.62;32593.03;5027088;28;20108;-67
2023/11/09 07:50:54;;;;;;;26.15;4.15;;;;;;;-146.27;90.56;32479.97;5024866;28;20061;-68
2023/11/09 07:53:20;;;;;;;24.08;4.30;;;;;;;-146.27;90.52;32525.59;5040618;28;20025;-68
2023/11/09 07:55:48;;;;;;;14.48;4.00;;;;;;;-146.27;90.31;32565.25;5027466;28;20021;-69
2023/11/09 07:58:15;;;;;;;13.85;3.78;;;;;;;-146.27;89.99;32545.44;5029498;28;20052;-69
2023/11/09 08:00:40;;;;;;;25.17;4.00;;;;;;;-146.27;90.34;32519.63;5027804;28;20037;-68
2023/11/09 08:03:06;;;;;;;23.48;4.18;;;;;;;-146.27;89.79;32549.38;5030062;28;20366;-67
2023/11/09 08:05:32;;;;;;;19.02;3.70;;;;;;;-146.27;89.45;32505.75;5030386;28;20017;-68
2023/11/09 08:07:59;;;;;;;18.92;4.30;;;;;;;-146.27;89.75;32503.75;5030621;28;20524;-68
2023/11/09 08:10:27;;;;;;;21.83;3.78;;;;;;;-146.27;89.73;32505.75;5028688;28;20030;-68
2023/11/09 08:12:53;;;;;;;19.92;4.10;;;;;;;-146.27;88.48;32553.34;5018173;28;20112;-67
2023/11/09 08:15:19;;;;;;;26.50;4.13;;;;;;;-146.27;88.46;32561.28;5029470;28;20029;-68
2023/11/09 08:17:44;;;;;;;16.83;3.55;;;;;;;-146.27;89.09;32497.81;5026463;28;20037;-68
2023/11/09 08:20:13;;;;;;;14.23;2.97;;;;;;;-146.27;88.10;32493.84;5050327;28;20496;-67
2023/11/09 08:22:45;;;;;;;18.48;3.90;;;;;;;-146.27;88.04;32531.53;5047344;28;20099;-68
2023/11/09 08:25:14;;;;;;;21.88;4.38;;;;;;;-146.27;88.18;32533.53;5010636;28;20109;-68
2023/11/09 08:27:40;;;;;;;22.65;3.45;;;;;;;-146.27;87.35;32499.81;5011826;28;20073;-68
2023/11/09 08:30:10;;;;;;;15.95;3.20;;;;;;;-146.27;87.16;32529.56;5030336;28;20032;-68
2023/11/09 08:32:37;;;;;;;22.00;4.45;;;;;;;-146.27;86.91;32515.66;5030266;28;20083;-68
2023/11/09 08:35:09;;;;;;;19.10;3.10;;;;;;;-146.27;86.96;32454.16;5030049;28;20029;-67
2023/11/09 08:37:36;;;;;;;15.98;2.33;;;;;;;-146.27;87.37;32481.94;5027143;28;20477;-68
2023/11/09 08:40:06;;;;;;;24.88;3.72;;;;;;;-146.27;86.66;32479.97;5049607;28;20028;-67
2023/11/09 08:42:33;;;;;;;13.73;2.88;;;;;;;-146.27;86.71;32454.16;5050078;28;20028;-68
2023/11/09 08:44:59;;;;;;;11.98;2.58;;;;;;;-146.27;87.55;32376.81;5047453;28;20543;-68
2023/11/09 08:47:25;;;;;;;18.38;4.22;;;;;;;-146.27;86.65;32454.16;5030257;28;20130;-67
2023/11/09 08:49:50;;;;;;;11.70;2.67;;;;;;;-146.27;86.78;32404.59;5025506;28;20039;-68
2023/11/09 08:52:15;;;;;;;36.85;4.53;;;;;;;-146.27;86.60;32347.06;5050147;28;20637;-68
2023/11/09 08:54:43;;;;;;;18.05;2.95;;;;;;;-146.27;86.80;32307.38;5049950;28;20028;-67
2023/11/09 08:57:09;;;;;;;22.15;3.45;;;;;;;-146.27;86.02;32345.06;5037288;28;20036;-67
2023/11/09 08:59:35;;;;;;;21.42;3.60;;;;;;;-146.27;85.52;32386.72;5028691;28;20432;-68
2023/11/09 09:02:02;;;;;;;26.85;3.97;;;;;;;-146.27;85.45;32339.13;5052211;28;20044;-68
2023/11/09 09:04:28;;;;;;;16.52;3.42;;;;;;;-146.27;85.67;32343.09;5050584;28;20094;-68
2023/11/09 09:06:54;;;;;;;24.10;4.55;;;;;;;-146.27;85.10;32370.84;5053882;28;20017;-67
2023/11/09 09:09:21;;;;;;;16.23;3.20;;;;;;;-146.27;85.64;32307.38;5040804;28;20029;-67
2023/11/09 09:11:47;;;;;;;15.45;3.50;;;;;;;-146.27;85.37;32303.41;5039230;28;20025;-67
2023/11/09 09:14:14;;;;;;;19.15;3.70;;;;;;;-146.27;85.78;32253.81;5036172;28;20041;-68
2023/11/09 09:16:39;;;;;;;18.15;3.60;;;;;;;-146.27;85.54;32228.03;5046822;28;20048;-67
2023/11/09 09:19:05;;;;;;;19.52;3.72;;;;;;;-146.27;85.12;32255.81;5037006;28;20033;-66
2023/11/09 09:21:31;;;;;;;20.40;4.07;;;;;;;-146.27;84.85;32299.44;5041116;28;20032;-66
2023/11/09 09:23:56;;;;;;;16.25;3.15;;;;;;;-146.27;84.44;32279.63;5042121;28;20032;-65
2023/11/09 09:26:21;;;;;;;13.90;4.60;;;;;;;-146.27;83.83;32281.59;5053621;28;20031;-68
2023/11/09 09:28:51;;;;;;;22.10;3.08;;;;;;;-146.27;83.30;32212.16;5053442;28;20370;-65
2023/11/09 09:31:18;;;;;;;13.95;3.25;;;;;;;-146.27;83.11;32202.25;5036862;28;20098;-67
2023/11/09 09:33:56;;;;;;;15.82;2.92;;;;;;;-146.27;82.28;32196.31;5041547;28;20028;-66
2023/11/09 09:36:22;;;;;;;28.50;2.58;;;;;;;-146.27;81.21;32208.22;5053277;28;20025;-68
2023/11/09 09:38:47;;;;;;;18.75;2.70;;;;;;;-146.27;81.25;32190.34;5053194;28;20057;-68
2023/11/09 09:41:15;;;;;;;13.82;2.95;;;;;;;-146.27;80.67;32156.63;5042586;28;20419;-68
2023/11/09 09:43:42;;;;;;;11.13;2.50;;;;;;;-146.27;79.99;32178.44;5052887;28;20036;-69
2023/11/09 09:46:08;;;;;;;19.75;3.00;;;;;;;-146.27;80.02;32210.19;5050809;28;20147;-66
2023/11/09 09:48:34;;;;;;;11.25;1.95;;;;;;;-146.27;79.47;32077.28;5038557;28;20102;-67
2023/11/09 09:51:00;;;;;;;24.98;3.30;;;;;;;-146.27;79.44;32184.41;5024592;28;20101;-67
2023/11/09 09:53:26;;;;;;;15.65;2.38;;;;;;;-146.27;78.87;32122.91;5012291;28;20497;-66
2023/11/09 09:55:53;;;;;;;19.33;2.60;;;;;;;-146.27;79.01;32021.75;5013151;28;20076;-67
2023/11/09 09:58:20;;;;;;;13.68;2.42;;;;;;;-146.27;79.23;31982.09;5022789;28;20465;-68
2023/11/09 10:00:47;;;;;;;16.80;3.00;;;;;;;-146.27;79.42;32132.84;5020553;28;20048;-67
2023/11/09 10:03:13;;;;;;;10.77;2.28;;;;;;;-146.27;78.95;32031.66;5049825;28;20049;-67
2023/11/09 10:05:39;;;;;;;13.57;2.47;;;;;;;-146.27;78.80;32005.88;5039133;28;20099;-66
2023/11/09 10:08:04;;;;;;;13.93;2.65;;;;;;;-146.27;78.11;31938.44;5042567;28;20029;-68
2023/11/09 10:10:34;;;;;;;21.20;2.78;;;;;;;-146.27;77.27;31982.09;5030640;28;20032;-68
2023/11/09 10:13:02;;;;;;;19.77;2.95;;;;;;;-146.27;77.00;31997.94;5031762;28;20433;-67
2023/11/09 10:15:29;;;;;;;14.07;2.88;;;;;;;-146.27;77.56;31857.13;5032656;28;20470;-67
2023/11/09 10:17:55;;;;;;;11.57;2.45;;;;;;;-146.27;78.17;31787.72;5034236;28;20049;-68
2023/11/09 10:20:25;;;;;;;8.32;1.83;;;;;;;-146.27;76.33;31900.75;5041702;28;20029;-67
2023/11/09 10:22:54;;;;;;;13.30;2.50;;;;;;;-146.27;76.54;31876.97;5011377;28;20111;-67
2023/11/09 10:25:26;;;;;;;14.90;2.45;;;;;;;-146.27;76.88;31750.03;5012727;28;20045;-67
2023/11/09 10:27:54;;;;;;;17.55;2.85;;;;;;;-146.27;74.11;31805.56;5025893;28;20025;-67
2023/11/09 10:30:19;;;;;;;17.02;2.60;;;;;;;-146.27;72.49;31867.03;5047332;28;20025;-67
2023/11/09 10:32:46;;;;;;;12.63;2.30;;;;;;;-146.27;73.11;31904.72;5012715;28;20524;-69
2023/11/09 10:35:13;;;;;;;18.83;3.90;;;;;;;-146.27;73.64;31946.38;5028418;28;20396;-69
2023/11/09 10:37:40;;;;;;;16.60;2.70;;;;;;;-146.27;74.43;31859.13;5031313;28;20021;-69
2023/11/09 10:40:12;;;;;;;15.55;3.22;;;;;;;-146.27;73.92;31882.91;5031417;28;20120;-68
2023/11/09 10:42:39;;;;;;;12.73;2.25;;;;;;;-146.27;74.21;31894.81;5025351;28;20035;-69
2023/11/09 10:45:10;;;;;;;15.57;2.25;;;;;;;-146.27;73.33;32039.59;5032162;28;20039;-69
2023/11/09 10:47:39;;;;;;;12.27;2.15;;;;;;;-146.27;73.59;32216.13;5031348;28;20033;-69
2023/11/09 10:50:13;;;;;;;13.73;2.55;;;;;;;-146.27;73.86;32077.28;5034661;28;20040;-69
2023/11/09 10:52:42;;;;;;;15.23;2.97;;;;;;;-146.27;73.55;32077.28;5043329;28;20516;-69
2023/11/09 10:55:16;;;;;;;9.73;1.98;;;;;;;-146.27;73.02;32081.25;5048040;28;20474;-67
2023/11/09 10:57:43;;;;;;;13.82;2.85;;;;;;;-146.27;72.32;31902.75;5031102;28;20625;-69
2023/11/09 11:00:31;;;;;;;15.30;2.80;;;;;;;-146.27;70.76;31851.19;5031507;28;20104;-68
2023/11/09 11:03:09;;;;;;;12.07;2.53;;;;;;;-146.27;70.89;31890.84;5031840;28;20100;-69
2023/11/09 11:05:40;;;;;;;19.40;2.50;;;;;;;-146.27;70.35;31954.31;5031755;28;20100;-69
2023/11/09 11:08:11;;;;;;;17.00;3.20;;;;;;;-146.27;69.43;32017.78;5030672;28;20416;-68
2023/11/09 11:10:45;;;;;;;27.83;2.92;;;;;;;-146.27;69.88;32057.47;5030118;28;20544;-68
2023/11/09 11:13:16;;;;;;;17.55;2.83;;;;;;;-146.27;69.80;32093.16;5030627;28;20021;-68
2023/11/09 11:16:22;;;;;;;16.75;2.08;;;;;;;-146.27;69.65;32037.63;5030065;28;20056;-68
2023/11/09 11:19:18;;;;;;;10.38;2.15;;;;;;;-146.27;68.84;32003.91;5038286;28;20508;-68
2023/11/09 11:22:22;;;;;;;14.75;2.45;;;;;;;-146.27;68.15;31938.44;5031000;28;20087;-68